createdAt,value
2019-04-21T00:01:39.920Z,17.00
2019-04-21T00:04:12.339Z,14.93
2019-04-21T00:06:51.095Z,18.10
2019-04-21T00:09:27.821Z,17.62
2019-04-21T00:11:48.325Z,14.83
2019-04-21T00:14:13.276Z,17.23
2019-04-21T00:16:34.719Z,16.55
2019-04-21T00:19:09.083Z,18.05
2019-04-21T00:21:38.474Z,21.57
2019-04-21T00:24:23.285Z,18.02
2019-04-21T00:27:03.781Z,19.77
2019-04-21T00:29:34.239Z,17.30
2019-04-21T00:31:56.029Z,21.42
2019-04-21T00:34:09.566Z,17.32
2019-04-21T00:36:47.167Z,21.87
2019-04-21T00:39:36.134Z,19.45
2019-04-21T00:41:59.599Z,17.10
2019-04-21T00:44:18.026Z,20.30
2019-04-21T00:46:55.823Z,18.37
2019-04-21T00:49:24.772Z,21.65
2019-04-21T00:52:25.144Z,15.53
2019-04-21T00:54:52.100Z,19.52
2019-04-21T00:57:11.513Z,19.95
2019-04-21T00:59:40.413Z,22.90
2019-04-21T01:02:05.617Z,19.23
2019-04-21T01:04:36.860Z,19.70
2019-04-21T01:07:11.192Z,20.15
2019-04-21T01:09:27.861Z,20.20
2019-04-21T01:12:01.285Z,16.90
2019-04-21T01:14:34.811Z,22.58
2019-04-21T01:16:57.954Z,17.70
2019-04-21T01:19:25.159Z,21.25
2019-04-21T01:21:35.244Z,22.13
2019-04-21T01:24:08.703Z,20.62
2019-04-21T01:26:42.969Z,22.25
2019-04-21T01:29:15.936Z,19.67
2019-04-21T01:31:42.154Z,20.57
2019-04-21T01:34:17.043Z,17.45
2019-04-21T01:36:46.039Z,20.62
2019-04-21T01:39:19.704Z,17.82
2019-04-21T01:41:44.789Z,20.48
2019-04-21T01:44:07.522Z,18.50
2019-04-21T01:46:33.715Z,18.30
2019-04-21T01:49:02.098Z,24.43
2019-04-21T01:51:49.320Z,20.65
2019-04-21T01:54:16.033Z,19.37
2019-04-21T01:56:40.159Z,17.52
2019-04-21T01:58:58.763Z,19.85
2019-04-21T02:01:42.319Z,20.23
2019-04-21T02:04:02.669Z,24.63
2019-04-21T02:06:36.262Z,24.15
2019-04-21T02:08:58.055Z,20.92
2019-04-21T02:11:41.280Z,21.07
2019-04-21T02:14:03.873Z,21.60
2019-04-21T02:16:30.773Z,19.67
2019-04-21T02:18:54.672Z,23.42
2019-04-21T02:21:22.104Z,21.07
2019-04-21T02:24:05.068Z,20.57
2019-04-21T02:26:28.542Z,19.90
2019-04-21T02:29:01.959Z,17.48
2019-04-21T02:31:40.420Z,19.48
2019-04-21T02:34:04.481Z,20.75
2019-04-21T02:36:40.214Z,20.30
2019-04-21T02:41:35.522Z,18.92
2019-04-21T02:44:02.507Z,18.87
2019-04-21T02:46:35.314Z,22.35
2019-04-21T02:49:11.638Z,20.40
2019-04-21T02:51:33.889Z,17.55
2019-04-21T02:56:34.481Z,20.35
2019-04-21T03:04:13.808Z,25.32
2019-04-21T03:07:01.653Z,18.07
2019-04-21T03:09:29.797Z,21.00
2019-04-21T03:12:01.573Z,19.02
2019-04-21T03:14:31.497Z,20.00
2019-04-21T03:16:40.158Z,17.77
2019-04-21T03:21:52.482Z,15.43
2019-04-21T03:24:17.927Z,15.85
2019-04-21T03:27:01.897Z,20.55
2019-04-21T03:29:23.906Z,22.05
2019-04-21T03:39:05.637Z,20.20
2019-04-21T03:41:39.548Z,18.52
2019-04-21T03:44:06.195Z,19.17
2019-04-21T03:49:11.851Z,18.57
2019-04-21T03:51:57.347Z,21.37
2019-04-21T03:54:04.966Z,19.57
2019-04-21T04:01:28.468Z,18.40
2019-04-21T04:04:30.617Z,17.55
2019-04-21T04:06:45.081Z,20.77
2019-04-21T04:11:44.152Z,18.02
2019-04-21T04:16:50.372Z,19.00
2019-04-21T04:19:06.136Z,15.85
2019-04-21T04:21:37.217Z,16.50
2019-04-21T04:24:07.170Z,22.85
2019-04-21T04:29:12.428Z,23.42
2019-04-21T04:34:10.565Z,30.15
2019-04-21T04:36:53.161Z,22.52
2019-04-21T04:39:39.635Z,16.80
2019-04-21T04:42:03.332Z,19.60
2019-04-21T04:44:42.081Z,19.25
2019-04-21T04:49:40.017Z,18.07
2019-04-21T04:52:14.140Z,19.42
2019-04-21T04:54:33.792Z,17.82
2019-04-21T04:56:59.284Z,20.02
2019-04-21T05:02:05.777Z,22.95
2019-04-21T05:04:15.461Z,16.42
2019-04-21T05:09:13.106Z,18.30
2019-04-21T05:14:25.103Z,14.10
2019-04-21T05:16:46.769Z,15.45
2019-04-21T05:21:54.712Z,16.25
2019-04-21T05:24:10.795Z,17.60
2019-04-21T05:26:22.015Z,16.50
2019-04-21T05:28:47.298Z,20.00
2019-04-21T05:31:31.670Z,16.90
2019-04-21T05:34:07.470Z,17.48
2019-04-21T05:36:45.907Z,23.00
2019-04-21T05:39:18.523Z,19.87
2019-04-21T05:41:41.232Z,18.35
2019-04-21T05:44:31.242Z,18.48
2019-04-21T05:47:05.924Z,20.25
2019-04-21T05:49:27.961Z,20.23
2019-04-21T05:51:57.499Z,21.80
2019-04-21T05:54:39.503Z,20.35
2019-04-21T05:56:55.447Z,18.52
2019-04-21T05:59:29.372Z,18.90
2019-04-21T06:02:11.410Z,15.78
2019-04-21T06:04:38.494Z,18.20
2019-04-21T06:06:59.443Z,20.95
2019-04-21T06:09:32.277Z,18.32
2019-04-21T06:11:51.429Z,19.17
2019-04-21T06:14:25.153Z,20.82
2019-04-21T06:19:29.414Z,22.45
2019-04-21T06:21:45.225Z,18.95
2019-04-21T06:24:17.352Z,19.90
2019-04-21T06:27:00.375Z,19.92
2019-04-21T06:29:19.470Z,16.95
2019-04-21T06:34:11.214Z,18.52
2019-04-21T06:39:40.324Z,22.48
2019-04-21T06:41:45.270Z,18.98
2019-04-21T06:44:16.532Z,20.08
2019-04-21T06:47:04.535Z,21.20
2019-04-21T06:49:21.776Z,20.20
2019-04-21T06:51:43.591Z,18.32
2019-04-21T06:54:30.557Z,22.30
2019-04-21T06:57:21.877Z,23.95
2019-04-21T06:59:23.061Z,22.87
2019-04-21T07:01:43.896Z,21.55
2019-04-21T07:06:46.953Z,29.42
2019-04-21T07:11:31.802Z,18.45
2019-04-21T07:14:24.947Z,19.55
2019-04-21T07:16:32.010Z,20.25
2019-04-21T07:19:09.957Z,18.92
2019-04-21T07:21:30.001Z,19.05
2019-04-21T07:23:59.156Z,18.90
2019-04-21T07:26:32.725Z,17.20
2019-04-21T07:29:01.858Z,16.80
2019-04-21T07:31:28.935Z,20.97
2019-04-21T07:36:36.432Z,17.90
2019-04-21T07:38:49.884Z,13.70
2019-04-21T07:41:11.325Z,21.35
2019-04-21T07:43:39.371Z,14.25
2019-04-21T07:46:09.282Z,15.50
2019-04-21T07:48:49.258Z,19.42
2019-04-21T07:51:25.393Z,22.13
2019-04-21T07:54:08.623Z,15.83
2019-04-21T07:56:09.344Z,15.45
2019-04-21T07:58:58.385Z,15.68
2019-04-21T08:01:24.329Z,13.25
2019-04-21T08:04:14.752Z,14.25
2019-04-21T08:06:22.406Z,13.55
2019-04-21T08:08:49.145Z,21.15
2019-04-21T08:11:15.235Z,13.53
2019-04-21T08:13:48.717Z,14.10
2019-04-21T08:16:17.425Z,16.65
2019-04-21T08:18:47.421Z,14.87
2019-04-21T08:21:11.018Z,15.05
2019-04-21T08:23:41.608Z,15.05
2019-04-21T08:26:07.969Z,15.53
2019-04-21T08:28:42.612Z,11.85
2019-04-21T08:31:08.191Z,12.85
2019-04-21T08:33:46.569Z,14.00
2019-04-21T08:38:41.717Z,13.45
2019-04-21T08:41:08.426Z,17.17
2019-04-21T08:46:02.026Z,13.43
2019-04-21T08:48:28.530Z,10.68
2019-04-21T08:51:14.172Z,13.43
2019-04-21T08:53:34.269Z,11.40
2019-04-21T08:56:18.274Z,10.20
2019-04-21T08:58:59.199Z,13.18
2019-04-21T09:01:23.989Z,8.85
2019-04-21T09:04:03.793Z,8.93
2019-04-21T09:06:40.277Z,9.73
2019-04-21T09:08:58.630Z,7.97
2019-04-21T09:11:22.609Z,8.70
2019-04-21T09:13:48.914Z,8.68
2019-04-21T09:16:17.081Z,12.23
2019-04-21T09:18:43.335Z,8.65
2019-04-21T09:21:19.455Z,9.85
2019-04-21T09:23:45.339Z,10.08
2019-04-21T09:26:19.697Z,12.07
2019-04-21T09:28:42.106Z,8.95
2019-04-21T09:31:00.841Z,7.87
2019-04-21T09:33:34.502Z,6.25
2019-04-21T09:35:59.260Z,10.58
2019-04-21T09:38:29.965Z,6.83
2019-04-21T09:40:54.019Z,9.15
2019-04-21T09:43:29.987Z,8.00
2019-04-21T09:45:47.665Z,6.92
2019-04-21T09:48:18.733Z,8.68
2019-04-21T09:50:43.890Z,10.00
2019-04-21T09:53:16.782Z,7.25
2019-04-21T09:55:46.591Z,7.90
2019-04-21T09:58:18.487Z,10.60
2019-04-21T10:00:52.557Z,7.80
2019-04-21T10:03:11.687Z,6.75
2019-04-21T10:05:36.022Z,7.58
2019-04-21T10:08:04.095Z,6.53
2019-04-21T10:10:31.841Z,7.85
2019-04-21T10:13:00.694Z,9.25
2019-04-21T10:15:28.318Z,6.72
2019-04-21T10:18:01.028Z,6.10
2019-04-21T10:20:28.538Z,6.30
2019-04-21T10:22:55.373Z,8.13
2019-04-21T10:25:22.809Z,6.62
2019-04-21T10:27:49.646Z,8.68
2019-04-21T10:30:16.989Z,7.40
2019-04-21T10:32:43.567Z,7.85
2019-04-21T10:35:10.909Z,5.78
2019-04-21T10:37:52.681Z,8.53
2019-04-21T10:40:07.525Z,7.97
2019-04-21T10:42:35.738Z,6.28
2019-04-21T10:45:05.102Z,6.37
2019-04-21T10:47:32.423Z,8.65
2019-04-21T10:50:00.400Z,8.73
2019-04-21T10:52:46.691Z,6.12
2019-04-21T10:55:32.059Z,9.15
2019-04-21T10:57:44.367Z,6.83
2019-04-21T11:00:13.609Z,8.90
2019-04-21T11:02:44.674Z,9.23
2019-04-21T11:05:12.503Z,7.08
2019-04-21T11:07:55.222Z,8.60
2019-04-21T11:10:13.956Z,7.40
2019-04-21T11:12:41.382Z,9.05
2019-04-21T11:15:09.390Z,6.95
2019-04-21T11:17:36.480Z,6.75
2019-04-21T11:20:04.620Z,5.67
2019-04-21T11:22:33.501Z,6.53
2019-04-21T11:25:00.769Z,8.13
2019-04-21T11:27:28.800Z,5.83
2019-04-21T11:29:55.737Z,6.05
2019-04-21T11:32:23.149Z,7.90
2019-04-21T11:34:49.842Z,5.62
2019-04-21T11:37:18.216Z,7.15
2019-04-21T11:39:53.557Z,8.38
2019-04-21T11:42:19.561Z,7.50
2019-04-21T11:44:49.362Z,6.95
2019-04-21T11:47:18.807Z,8.03
2019-04-21T11:49:45.507Z,6.72
2019-04-21T11:52:13.294Z,6.20
2019-04-21T11:54:41.017Z,8.73
2019-04-21T11:57:14.074Z,5.85
2019-04-21T11:59:37.518Z,7.12
2019-04-21T12:02:05.579Z,5.95
2019-04-21T12:04:33.708Z,10.40
2019-04-21T12:07:01.897Z,8.65
2019-04-21T12:09:29.307Z,7.90
2019-04-21T12:11:57.189Z,8.78
2019-04-21T12:14:25.963Z,6.72
2019-04-21T12:16:55.452Z,6.35
2019-04-21T12:22:08.817Z,7.80
2019-04-21T12:24:33.415Z,4.87
2019-04-21T12:29:30.630Z,7.70
2019-04-21T12:32:03.428Z,6.85
2019-04-21T12:34:30.275Z,5.75
2019-04-21T12:36:57.060Z,7.60
2019-04-21T12:39:25.089Z,9.30
2019-04-21T12:41:51.864Z,7.65
2019-04-21T12:44:20.469Z,5.30
2019-04-21T12:46:47.715Z,6.65
2019-04-21T12:49:15.844Z,8.80
2019-04-21T12:51:44.090Z,5.10
2019-04-21T12:54:11.984Z,4.65
2019-04-21T12:56:38.920Z,5.42
2019-04-21T12:59:05.563Z,5.47
2019-04-21T13:01:32.766Z,7.58
2019-04-21T13:03:59.678Z,7.83
2019-04-21T13:06:27.752Z,6.97
2019-04-21T13:09:01.350Z,6.25
2019-04-21T13:11:23.411Z,5.33
2019-04-21T13:13:50.260Z,5.92
2019-04-21T13:16:19.232Z,5.78
2019-04-21T13:18:47.114Z,6.83
2019-04-21T13:21:14.099Z,6.50
2019-04-21T13:23:41.124Z,6.40
2019-04-21T13:26:08.395Z,4.28
2019-04-21T13:28:37.576Z,5.78
2019-04-21T13:31:04.554Z,7.28
2019-04-21T13:33:31.303Z,6.67
2019-04-21T13:35:59.249Z,5.28
2019-04-21T13:38:34.642Z,7.62
2019-04-21T13:41:27.338Z,6.22
2019-04-21T13:43:41.181Z,6.72
2019-04-21T13:46:08.133Z,6.12
2019-04-21T13:48:34.917Z,5.05
2019-04-21T13:51:01.600Z,6.00
2019-04-21T13:53:28.586Z,5.03
2019-04-21T13:55:56.523Z,5.55
2019-04-21T13:58:24.196Z,8.08
2019-04-21T14:00:52.407Z,5.92
2019-04-21T14:03:21.746Z,5.83
2019-04-21T14:05:48.610Z,6.58
2019-04-21T14:08:15.589Z,4.67
2019-04-21T14:10:43.805Z,6.22
2019-04-21T14:13:12.063Z,7.10
2019-04-21T14:15:42.345Z,7.75
2019-04-21T14:18:10.929Z,5.70
2019-04-21T14:20:37.841Z,4.90
2019-04-21T14:23:15.427Z,4.22
2019-04-21T14:25:32.910Z,5.20
2019-04-21T14:27:59.891Z,7.58
2019-04-21T14:30:28.002Z,6.47
2019-04-21T14:32:56.236Z,4.97
2019-04-21T14:35:23.065Z,8.58
2019-04-21T14:37:52.920Z,5.58
2019-04-21T14:40:23.669Z,5.40
2019-04-21T14:42:49.875Z,5.35
2019-04-21T14:45:30.579Z,4.97
2019-04-21T14:47:59.083Z,6.00
2019-04-21T14:50:40.070Z,5.58
2019-04-21T14:53:09.809Z,5.43
2019-04-21T14:55:39.416Z,6.78
2019-04-21T14:58:07.340Z,3.95
2019-04-21T15:00:46.489Z,5.17
2019-04-21T15:03:16.019Z,5.92
2019-04-21T15:05:43.015Z,43.42
2019-04-21T15:08:11.032Z,6.55
2019-04-21T15:10:38.922Z,4.92
2019-04-21T15:13:05.910Z,5.20
2019-04-21T15:15:32.493Z,4.17
2019-04-21T15:18:00.155Z,7.78
2019-04-21T15:20:26.920Z,4.55
2019-04-21T15:22:54.480Z,6.42
2019-04-21T15:25:21.953Z,4.83
2019-04-21T15:27:48.839Z,5.65
2019-04-21T15:30:16.511Z,4.67
2019-04-21T15:32:44.408Z,5.03
2019-04-21T15:35:11.264Z,6.35
2019-04-21T15:37:37.982Z,6.08
2019-04-21T15:40:14.817Z,8.13
2019-04-21T15:42:34.673Z,13.28
2019-04-21T15:45:02.911Z,6.62
2019-04-21T15:47:31.814Z,11.12
2019-04-21T15:50:03.654Z,5.58
2019-04-21T15:52:28.097Z,4.08
2019-04-21T15:54:56.988Z,5.97
2019-04-21T15:57:29.714Z,6.35
2019-04-21T16:00:02.679Z,5.65
2019-04-21T16:02:44.635Z,6.80
2019-04-21T16:05:12.987Z,7.83
2019-04-21T16:07:40.292Z,7.62
2019-04-21T16:10:10.692Z,7.35
2019-04-21T16:12:37.918Z,4.40
2019-04-21T16:15:08.657Z,7.80
2019-04-21T16:17:35.380Z,5.75
2019-04-21T16:20:03.992Z,4.85
2019-04-21T16:22:30.904Z,5.15
2019-04-21T16:24:59.052Z,4.83
2019-04-21T16:27:25.783Z,5.65
2019-04-21T16:29:52.435Z,5.87
2019-04-21T16:32:21.427Z,6.10
2019-04-21T16:34:55.696Z,5.45
2019-04-21T16:37:17.442Z,4.35
2019-04-21T16:39:45.359Z,6.72
2019-04-21T16:42:14.199Z,4.70
2019-04-21T16:44:41.059Z,7.58
2019-04-21T16:47:07.739Z,5.35
2019-04-21T16:49:35.784Z,5.28
2019-04-21T16:52:07.869Z,6.58
2019-04-21T16:54:35.690Z,6.50
2019-04-21T16:57:04.176Z,5.35
2019-04-21T16:59:32.770Z,9.08
2019-04-21T17:02:00.632Z,6.58
2019-04-21T17:04:28.719Z,5.05
2019-04-21T17:06:55.589Z,7.75
2019-04-21T17:09:22.982Z,6.30
2019-04-21T17:11:57.422Z,6.28
2019-04-21T17:14:37.534Z,6.22
2019-04-21T17:17:15.268Z,6.85
2019-04-21T17:19:25.325Z,6.03
2019-04-21T17:21:47.895Z,5.83
2019-04-21T17:24:14.692Z,7.15
2019-04-21T17:26:44.184Z,6.83
2019-04-21T17:29:10.564Z,7.00
2019-04-21T17:31:37.314Z,5.53
2019-04-21T17:34:11.901Z,5.75
2019-04-21T17:36:33.014Z,5.25
2019-04-21T17:39:00.167Z,7.72
2019-04-21T17:41:36.451Z,6.55
2019-04-21T17:43:58.179Z,6.92
2019-04-21T17:46:36.637Z,6.75
2019-04-21T17:48:54.757Z,5.28
2019-04-21T17:51:27.541Z,5.95
2019-04-21T17:54:00.434Z,6.80
2019-04-21T17:56:55.084Z,6.80
2019-04-21T17:59:16.442Z,8.40
2019-04-21T18:01:45.680Z,6.78
2019-04-21T18:04:15.178Z,6.83
2019-04-21T18:06:54.325Z,6.47
2019-04-21T18:09:34.242Z,11.73
2019-04-21T18:12:01.552Z,5.60
2019-04-21T18:14:07.369Z,6.78
2019-04-21T18:16:39.516Z,9.50
2019-04-21T18:19:02.828Z,6.87
2019-04-21T18:21:50.054Z,12.47
2019-04-21T18:24:17.474Z,8.30
2019-04-21T18:26:47.718Z,11.25
2019-04-21T18:29:09.559Z,8.60
2019-04-21T18:31:42.735Z,5.40
2019-04-21T18:34:17.488Z,7.10
2019-04-21T18:36:49.987Z,10.08
2019-04-21T18:39:33.936Z,8.40
2019-04-21T18:42:06.503Z,8.70
2019-04-21T18:44:46.233Z,9.00
2019-04-21T18:47:16.283Z,7.62
2019-04-21T18:49:26.943Z,9.35
2019-04-21T18:52:03.983Z,8.30
2019-04-21T18:54:44.372Z,6.65
2019-04-21T18:57:10.215Z,6.30
2019-04-21T18:59:34.627Z,10.90
2019-04-21T19:02:01.052Z,6.72
2019-04-21T19:04:29.142Z,7.62
2019-04-21T19:07:06.638Z,8.13
2019-04-21T19:10:07.249Z,8.90
2019-04-21T19:12:16.504Z,10.88
2019-04-21T19:14:52.191Z,8.38
2019-04-21T19:17:38.374Z,7.08
2019-04-21T19:19:44.237Z,6.37
2019-04-21T19:22:21.770Z,8.33
2019-04-21T19:24:33.554Z,10.05
2019-04-21T19:27:08.035Z,10.65
2019-04-21T19:29:58.364Z,5.80
2019-04-21T19:32:04.449Z,8.30
2019-04-21T19:34:19.809Z,9.30
2019-04-21T19:36:48.803Z,8.85
2019-04-21T19:39:16.415Z,10.32
2019-04-21T19:41:55.112Z,9.45
2019-04-21T19:44:26.317Z,11.45
2019-04-21T19:46:55.981Z,9.68
2019-04-21T19:49:27.825Z,8.10
2019-04-21T19:51:43.817Z,7.50
2019-04-21T19:54:14.370Z,8.50
2019-04-21T19:56:31.918Z,9.18
2019-04-21T19:58:59.156Z,6.95
2019-04-21T20:01:25.737Z,7.65
2019-04-21T20:03:56.172Z,7.85
2019-04-21T20:06:34.531Z,7.65
2019-04-21T20:09:12.282Z,7.33
2019-04-21T20:11:34.691Z,7.92
2019-04-21T20:14:35.689Z,5.72
2019-04-21T20:16:37.460Z,6.35
2019-04-21T20:18:54.627Z,7.87
2019-04-21T20:21:16.382Z,8.95
2019-04-21T20:23:44.724Z,7.72
2019-04-21T20:26:13.680Z,8.40
2019-04-21T20:28:49.265Z,7.80
2019-04-21T20:31:24.975Z,7.03
2019-04-21T20:34:00.615Z,7.78
2019-04-21T20:36:29.576Z,6.90
2019-04-21T20:38:47.246Z,7.97
2019-04-21T20:41:22.712Z,8.88
2019-04-21T20:43:51.295Z,9.15
2019-04-21T20:46:23.716Z,6.42
2019-04-21T20:48:48.119Z,6.47
2019-04-21T20:51:20.396Z,7.03
2019-04-21T20:53:41.011Z,8.23
2019-04-21T20:56:08.635Z,6.92
2019-04-21T20:58:46.323Z,7.35
2019-04-21T21:01:26.813Z,8.45
2019-04-21T21:03:40.767Z,7.20
2019-04-21T21:06:08.266Z,6.60
2019-04-21T21:08:40.317Z,8.60
2019-04-21T21:11:03.284Z,7.58
2019-04-21T21:13:36.830Z,15.70
2019-04-21T21:16:21.643Z,9.70
2019-04-21T21:20:59.070Z,6.05
2019-04-21T21:23:33.562Z,5.62
2019-04-21T21:26:04.828Z,7.15
2019-04-21T21:28:24.604Z,12.88
2019-04-21T21:30:52.710Z,7.67
2019-04-21T21:33:22.174Z,7.58
2019-04-21T21:35:46.603Z,7.20
2019-04-21T21:38:28.232Z,8.40
2019-04-21T21:40:45.601Z,6.40
2019-04-21T21:43:08.250Z,5.92
2019-04-21T21:45:37.695Z,6.87
2019-04-21T21:48:20.456Z,7.03
2019-04-21T21:50:42.136Z,9.08
2019-04-21T21:53:03.251Z,5.55
2019-04-21T21:55:25.633Z,8.63
2019-04-21T21:57:58.109Z,5.85
2019-04-21T22:00:24.038Z,7.78
2019-04-21T22:02:55.443Z,7.20
2019-04-21T22:05:24.293Z,5.95
2019-04-21T22:07:49.960Z,10.93
2019-04-21T22:10:17.977Z,8.28
2019-04-21T22:12:53.976Z,8.43
2019-04-21T22:15:18.624Z,9.25
2019-04-21T22:18:03.424Z,10.08
2019-04-21T22:20:33.431Z,6.12
2019-04-21T22:22:49.875Z,8.20
2019-04-21T22:25:14.107Z,8.33
2019-04-21T22:27:39.103Z,7.65
2019-04-21T22:30:14.277Z,6.20
2019-04-21T22:32:50.223Z,6.20
2019-04-21T22:35:11.211Z,8.05
2019-04-21T22:37:48.777Z,6.30
2019-04-21T22:40:17.412Z,6.47
2019-04-21T22:42:45.251Z,7.92
2019-04-21T22:45:07.216Z,7.08
2019-04-21T22:47:37.795Z,6.47
2019-04-21T22:50:08.453Z,7.15
2019-04-21T22:52:35.633Z,5.47
2019-04-21T22:55:11.898Z,7.45
2019-04-21T22:57:41.747Z,9.00
2019-04-21T23:00:10.760Z,7.15
2019-04-21T23:02:39.274Z,6.67
2019-04-21T23:05:09.646Z,8.98
2019-04-21T23:07:41.500Z,7.62
2019-04-21T23:10:05.627Z,6.28
2019-04-21T23:12:36.599Z,7.05
2019-04-21T23:15:07.160Z,7.08
2019-04-21T23:17:50.263Z,5.60
2019-04-21T23:20:19.907Z,8.13
2019-04-21T23:22:58.420Z,6.62
2019-04-21T23:25:18.150Z,7.58
2019-04-21T23:27:46.839Z,9.20
2019-04-21T23:30:20.276Z,7.03
2019-04-21T23:32:36.007Z,7.50
2019-04-21T23:34:54.417Z,7.78
2019-04-21T23:37:24.103Z,8.45
2019-04-21T23:39:54.650Z,7.05
2019-04-21T23:42:23.724Z,5.60
2019-04-21T23:44:52.638Z,8.38
2019-04-21T23:47:29.304Z,6.70
2019-04-21T23:49:53.358Z,5.05
2019-04-21T23:52:15.736Z,8.55
2019-04-21T23:54:41.050Z,9.95
2019-04-21T23:57:12.457Z,7.85
2019-04-21T23:59:41.008Z,5.42
